Time;durP1;ratioP1;P1;durP2;ratioP2;P2;SDS_P1;SDS_P2;PMS_P1;PMS_P2;Temp;Humidity;BMP_temperature;BMP_pressure;BME280_temperature;BME280_humidity;BME280_pressure;Samples;Min_cycle;Max_cycle;Signal;HPM_P1;HPM_P2
2022/09/12 00:02:19;;;;;;;1999.90;999.90;;;12.60;99.90;;;;;;5092097;28;20406;-65
2022/09/12 00:04:45;;;;;;;1999.90;999.90;;;12.60;99.90;;;;;;5090177;28;20063;-65
2022/09/12 00:07:10;;;;;;;1999.90;999.90;;;12.60;99.90;;;;;;5090930;28;20044;-66
2022/09/12 00:09:36;;;;;;;1999.90;999.90;;;12.50;99.90;;;;;;5075969;28;20090;-65
2022/09/12 00:12:02;;;;;;;1999.90;999.90;;;12.50;99.90;;;;;;5092337;28;20039;-65
2022/09/12 00:14:27;;;;;;;1999.90;999.90;;;12.40;99.90;;;;;;5075198;28;20043;-66
2022/09/12 00:16:57;;;;;;;1999.90;999.90;;;12.40;99.90;;;;;;5088716;28;20036;-65
2022/09/12 00:19:23;;;;;;;1999.90;999.90;;;12.40;99.90;;;;;;5092352;28;20044;-65
2022/09/12 00:21:48;;;;;;;1999.90;999.90;;;12.40;99.90;;;;;;5074090;28;20036;-66
2022/09/12 00:24:14;;;;;;;1999.90;999.90;;;12.30;99.90;;;;;;5074923;28;20687;-66
2022/09/12 00:26:40;;;;;;;1999.90;999.90;;;12.30;99.90;;;;;;5073092;28;20082;-65
2022/09/12 00:29:05;;;;;;;1999.90;999.90;;;12.30;99.90;;;;;;5074689;28;20047;-65
2022/09/12 00:31:31;;;;;;;1999.90;999.90;;;12.30;99.90;;;;;;5056201;28;20059;-65
2022/09/12 00:33:59;;;;;;;1999.90;999.90;;;12.20;99.90;;;;;;5072840;28;20044;-65
2022/09/12 00:36:26;;;;;;;1999.90;999.90;;;12.20;99.90;;;;;;5091480;28;20045;-65
2022/09/12 00:38:53;;;;;;;1999.90;999.90;;;12.20;99.90;;;;;;5069961;28;20486;-66
2022/09/12 00:41:22;;;;;;;1999.90;999.90;;;12.30;99.90;;;;;;5087362;28;20036;-65
2022/09/12 00:44:13;;;;;;;1999.90;999.90;;;12.30;99.90;;;;;;5085180;28;20147;-65
2022/09/12 00:46:56;;;;;;;1999.90;999.90;;;12.30;99.90;;;;;;5037775;28;20076;-65
2022/09/12 00:49:25;;;;;;;1999.90;999.90;;;12.30;99.90;;;;;;5091235;28;20124;-65
2022/09/12 00:52:12;;;;;;;1999.90;999.90;;;12.30;99.90;;;;;;5074411;28;20696;-65
2022/09/12 00:54:46;;;;;;;1999.90;999.90;;;12.30;99.90;;;;;;5056318;28;20040;-65
2022/09/12 00:57:15;;;;;;;1999.90;999.90;;;12.30;99.90;;;;;;5092815;28;20760;-65
2022/09/12 00:59:50;;;;;;;1999.90;999.90;;;12.30;99.90;;;;;;5093027;28;20048;-65
2022/09/12 01:02:16;;;;;;;1999.90;999.90;;;12.20;99.90;;;;;;5074031;28;21421;-66
2022/09/12 01:04:43;;;;;;;1999.90;999.90;;;12.30;99.90;;;;;;5071189;28;20124;-66
2022/09/12 01:07:09;;;;;;;1999.90;999.90;;;12.20;99.90;;;;;;5072767;28;20694;-66
2022/09/12 01:09:36;;;;;;;1999.90;999.90;;;12.20;99.90;;;;;;5092642;28;20035;-66
2022/09/12 01:12:03;;;;;;;1999.90;999.90;;;12.30;99.90;;;;;;5067700;28;20115;-66
2022/09/12 01:14:30;;;;;;;1999.90;999.90;;;12.20;99.90;;;;;;5089110;28;20777;-65
2022/09/12 01:16:55;;;;;;;1999.90;999.90;;;12.20;99.90;;;;;;5071455;28;20088;-65
2022/09/12 01:19:56;;;;;;;1999.90;999.90;;;12.30;99.90;;;;;;5091993;28;20370;-65
2022/09/12 01:22:24;;;;;;;1999.90;999.90;;;12.30;99.90;;;;;;5093145;28;20040;-66
2022/09/12 01:25:05;;;;;;;1999.90;999.90;;;12.30;99.90;;;;;;5077215;28;20089;-66
2022/09/12 01:28:08;;;;;;;1999.90;999.90;;;12.40;99.90;;;;;;5071050;28;20095;-66
2022/09/12 01:30:48;;;;;;;1999.90;999.90;;;12.40;99.90;;;;;;5046349;28;20395;-65
2022/09/12 01:33:22;;;;;;;1999.90;999.90;;;12.30;99.90;;;;;;5068979;28;20043;-66
2022/09/12 01:36:18;;;;;;;1999.90;999.90;;;12.30;99.90;;;;;;5072953;28;20051;-65
2022/09/12 01:39:00;;;;;;;1999.90;999.90;;;12.30;99.90;;;;;;5031215;28;20043;-65
2022/09/12 01:41:49;;;;;;;1999.90;999.90;;;12.30;99.90;;;;;;5074716;28;20070;-65
2022/09/12 01:44:26;;;;;;;1999.90;999.90;;;12.30;99.90;;;;;;5071096;28;20571;-65
2022/09/12 01:47:01;;;;;;;1999.90;999.90;;;12.20;99.90;;;;;;5067283;28;20513;-66
2022/09/12 01:49:35;;;;;;;1999.90;999.90;;;12.20;99.90;;;;;;5073786;28;20153;-65
2022/09/12 01:52:14;;;;;;;1999.90;999.90;;;12.30;99.90;;;;;;5070951;28;20506;-65
2022/09/12 01:55:01;;;;;;;1999.90;999.90;;;12.30;99.90;;;;;;5061565;28;20097;-65
2022/09/12 01:57:38;;;;;;;1999.90;999.90;;;12.30;99.90;;;;;;5089987;28;20112;-66
2022/09/12 02:00:10;;;;;;;1999.90;999.90;;;12.40;99.90;;;;;;5074250;28;20135;-66
2022/09/12 02:02:49;;;;;;;1999.90;999.90;;;12.50;99.90;;;;;;5086298;28;20120;-66
2022/09/12 02:05:26;;;;;;;1999.90;999.90;;;12.60;99.90;;;;;;5072367;28;20137;-65
2022/09/12 02:08:28;;;;;;;1999.90;999.90;;;12.70;99.90;;;;;;5070911;28;20059;-66
2022/09/12 02:11:05;;;;;;;1999.90;999.90;;;12.70;99.90;;;;;;5066244;28;20131;-66
2022/09/12 02:13:45;;;;;;;1999.90;999.90;;;12.60;99.90;;;;;;5091457;28;20053;-65
2022/09/12 02:16:16;;;;;;;1999.90;999.90;;;12.60;99.90;;;;;;5071628;28;20031;-65
2022/09/12 02:18:51;;;;;;;1999.90;999.90;;;12.70;99.90;;;;;;5090241;28;20040;-65
2022/09/12 02:21:18;;;;;;;1999.90;999.90;;;12.60;99.90;;;;;;5097253;28;20048;-65
2022/09/12 02:23:47;;;;;;;1999.90;999.90;;;12.60;99.90;;;;;;5092323;28;20036;-66
2022/09/12 02:26:24;;;;;;;1999.90;999.90;;;12.50;99.90;;;;;;5078969;28;20120;-66
2022/09/12 02:28:50;;;;;;;1999.90;999.90;;;12.50;99.90;;;;;;5093735;28;20100;-65
2022/09/12 02:31:24;;;;;;;1999.90;999.90;;;12.50;99.90;;;;;;5070241;28;20422;-65
2022/09/12 02:34:29;;;;;;;1999.90;999.90;;;12.50;99.90;;;;;;5076075;28;20051;-65
2022/09/12 02:37:14;;;;;;;1999.90;999.90;;;12.40;99.90;;;;;;5067901;28;20055;-65
2022/09/12 02:39:40;;;;;;;1999.90;999.90;;;12.40;99.90;;;;;;5093447;28;20031;-66
2022/09/12 02:42:05;;;;;;;1999.90;999.90;;;12.30;99.90;;;;;;5076211;28;20039;-66
2022/09/12 02:44:33;;;;;;;1999.90;999.90;;;12.30;99.90;;;;;;5064487;28;20042;-66
2022/09/12 02:47:08;;;;;;;1999.90;999.90;;;12.30;99.90;;;;;;5072695;28;20042;-65
2022/09/12 02:49:34;;;;;;;1999.90;999.90;;;12.40;99.90;;;;;;5091568;28;20041;-65
2022/09/12 02:52:01;;;;;;;1999.90;999.90;;;12.40;99.90;;;;;;5057863;28;20035;-65
2022/09/12 02:54:28;;;;;;;1999.90;999.90;;;12.50;99.90;;;;;;5090146;28;20036;-65
2022/09/12 02:56:53;;;;;;;1999.90;999.90;;;12.60;99.90;;;;;;5075482;28;20555;-65
2022/09/12 02:59:21;;;;;;;1999.90;999.90;;;12.70;99.90;;;;;;5089442;28;20040;-65
2022/09/12 03:02:23;;;;;;;1999.90;999.90;;;12.70;99.90;;;;;;5086597;28;20534;-65
2022/09/12 03:04:51;;;;;;;1999.90;999.90;;;12.70;99.90;;;;;;5090927;28;20083;-66
2022/09/12 03:07:39;;;;;;;1999.90;999.90;;;12.70;99.90;;;;;;5057754;28;20131;-65
2022/09/12 03:10:26;;;;;;;1999.90;999.90;;;12.70;99.90;;;;;;5075302;28;20115;-65
2022/09/12 03:13:19;;;;;;;1999.90;999.90;;;12.70;99.90;;;;;;5068937;28;20040;-65
2022/09/12 03:16:22;;;;;;;1999.90;999.90;;;12.70;99.90;;;;;;5070082;28;20089;-66
2022/09/12 03:18:54;;;;;;;1999.90;999.90;;;12.70;99.90;;;;;;5077069;28;20051;-65
2022/09/12 03:21:53;;;;;;;1999.90;999.90;;;12.70;99.90;;;;;;5071905;28;20048;-65
2022/09/12 03:24:36;;;;;;;1999.90;999.90;;;12.70;99.90;;;;;;5063974;28;20048;-65
2022/09/12 03:27:26;;;;;;;1999.90;999.90;;;12.70;99.90;;;;;;5071299;28;20062;-65
2022/09/12 03:29:52;;;;;;;1999.90;999.90;;;12.70;99.90;;;;;;5084140;28;20039;-65
2022/09/12 03:32:18;;;;;;;1999.90;999.90;;;12.70;99.90;;;;;;5076557;28;20168;-65
2022/09/12 03:34:44;;;;;;;1999.90;999.90;;;12.60;99.90;;;;;;5079635;28;20035;-65
2022/09/12 03:37:09;;;;;;;1999.90;999.90;;;12.60;99.90;;;;;;5059901;28;20035;-65
2022/09/12 03:39:35;;;;;;;1999.90;999.90;;;12.60;99.90;;;;;;5082237;28;20155;-65
2022/09/12 03:42:00;;;;;;;1999.90;999.90;;;12.60;99.90;;;;;;5092293;28;20039;-65
2022/09/12 03:44:26;;;;;;;1999.90;999.90;;;12.50;99.90;;;;;;5095936;28;20054;-65
2022/09/12 03:46:51;;;;;;;1999.90;999.90;;;12.50;99.90;;;;;;5078425;28;20039;-65
2022/09/12 03:49:17;;;;;;;1999.90;999.90;;;12.50;99.90;;;;;;5072656;28;20050;-65
2022/09/12 03:51:43;;;;;;;1999.90;999.90;;;12.50;99.90;;;;;;5093067;28;20055;-65
2022/09/12 03:54:09;;;;;;;1999.90;999.90;;;12.50;99.90;;;;;;5092530;28;20495;-65
2022/09/12 03:56:35;;;;;;;1999.90;999.90;;;12.40;99.90;;;;;;5078786;28;20044;-65
2022/09/12 03:59:04;;;;;;;1999.90;999.90;;;12.40;99.90;;;;;;5079080;28;20070;-65
2022/09/12 04:01:29;;;;;;;1999.90;999.90;;;12.40;99.90;;;;;;5094925;28;20162;-65
2022/09/12 04:03:55;;;;;;;1999.90;999.90;;;12.40;99.90;;;;;;5073996;28;20539;-65
2022/09/12 04:06:21;;;;;;;1999.90;999.90;;;12.40;99.90;;;;;;5095772;28;20118;-65
2022/09/12 04:08:49;;;;;;;1999.90;999.90;;;12.40;99.90;;;;;;5095811;28;20071;-65
2022/09/12 04:11:15;;;;;;;1999.90;999.90;;;12.40;99.90;;;;;;5090282;28;20032;-65
2022/09/12 04:13:43;;;;;;;1999.90;999.90;;;12.40;99.90;;;;;;5052676;28;20128;-65
2022/09/12 04:16:09;;;;;;;1999.90;999.90;;;12.40;99.90;;;;;;5072307;28;20031;-65
2022/09/12 04:18:35;;;;;;;1999.90;999.90;;;12.40;99.90;;;;;;5087082;28;20047;-65
2022/09/12 04:21:06;;;;;;;1999.90;999.90;;;12.50;99.90;;;;;;5072419;28;20043;-65
2022/09/12 04:23:32;;;;;;;1999.90;999.90;;;12.50;99.90;;;;;;5069429;28;20036;-65
2022/09/12 04:26:00;;;;;;;1999.90;999.90;;;12.50;99.90;;;;;;5071418;28;20048;-65
2022/09/12 04:28:27;;;;;;;1999.90;999.90;;;12.50;99.90;;;;;;5057709;28;20059;-65
2022/09/12 04:30:54;;;;;;;1999.90;999.90;;;12.50;99.90;;;;;;5074441;28;20386;-65
2022/09/12 04:33:20;;;;;;;1999.90;999.90;;;12.60;99.90;;;;;;5095845;28;20048;-65
2022/09/12 04:35:46;;;;;;;1999.90;999.90;;;12.60;99.90;;;;;;5060758;28;20054;-65
2022/09/12 04:38:12;;;;;;;1999.90;999.90;;;12.70;99.90;;;;;;5092124;28;20403;-65
2022/09/12 04:40:38;;;;;;;1999.90;999.90;;;12.70;99.90;;;;;;5076558;28;20040;-65
2022/09/12 04:43:04;;;;;;;1999.90;999.90;;;12.70;99.90;;;;;;5068820;28;20040;-65
2022/09/12 04:45:31;;;;;;;1999.90;999.90;;;12.70;99.90;;;;;;5073969;28;20043;-65
2022/09/12 04:47:57;;;;;;;1999.90;999.90;;;12.80;99.90;;;;;;5073386;28;20044;-65
2022/09/12 04:50:22;;;;;;;1999.90;999.90;;;12.80;99.90;;;;;;5073249;28;20040;-65
2022/09/12 04:52:49;;;;;;;1999.90;999.90;;;12.80;99.90;;;;;;5095116;28;20036;-65
2022/09/12 04:55:15;;;;;;;1999.90;999.90;;;12.80;99.90;;;;;;5075760;28;20039;-65
2022/09/12 04:57:41;;;;;;;1999.90;999.90;;;12.90;99.90;;;;;;5091684;28;20047;-65
2022/09/12 05:00:08;;;;;;;1999.90;999.90;;;12.90;99.90;;;;;;5071296;28;20048;-65
2022/09/12 05:02:33;;;;;;;1999.90;999.90;;;13.00;99.90;;;;;;5070891;28;20051;-65
2022/09/12 05:04:59;;;;;;;1999.90;999.90;;;13.00;99.90;;;;;;5087513;28;20047;-65
2022/09/12 05:07:25;;;;;;;1999.90;999.90;;;13.10;99.90;;;;;;5057942;28;20148;-65
2022/09/12 05:09:50;;;;;;;1999.90;999.90;;;13.10;99.90;;;;;;5093649;28;20040;-65
2022/09/12 05:12:16;;;;;;;1999.90;999.90;;;13.10;99.90;;;;;;5089949;28;20391;-65
2022/09/12 05:14:41;;;;;;;1999.90;999.90;;;13.10;99.90;;;;;;5075336;28;20043;-66
2022/09/12 05:17:07;;;;;;;1999.90;999.90;;;13.20;99.90;;;;;;5067152;28;20031;-65
2022/09/12 05:19:33;;;;;;;1999.90;999.90;;;13.20;99.90;;;;;;5086277;28;20039;-65
2022/09/12 05:21:59;;;;;;;1999.90;999.90;;;13.20;99.90;;;;;;5090934;28;20533;-65
2022/09/12 05:24:25;;;;;;;1999.90;999.90;;;13.30;99.90;;;;;;5065011;28;20082;-65
2022/09/12 05:26:51;;;;;;;1999.90;999.90;;;13.30;99.90;;;;;;5076118;28;20044;-65
2022/09/12 05:29:16;;;;;;;1999.90;999.90;;;13.40;99.90;;;;;;5088788;28;20036;-65
2022/09/12 05:31:42;;;;;;;1999.90;999.90;;;13.40;99.90;;;;;;5055616;28;20499;-65
2022/09/12 05:34:08;;;;;;;1999.90;999.90;;;13.40;99.90;;;;;;5077866;28;20052;-65
2022/09/12 05:36:36;;;;;;;1999.90;999.90;;;13.50;99.90;;;;;;5073358;28;20752;-66
2022/09/12 05:39:03;;;;;;;1999.90;999.90;;;13.50;99.90;;;;;;5092165;28;20043;-65
2022/09/12 05:41:31;;;;;;;1999.90;999.90;;;13.60;99.90;;;;;;5076556;28;20051;-65
2022/09/12 05:43:59;;;;;;;1999.90;999.90;;;13.60;99.90;;;;;;5084569;28;20048;-65
2022/09/12 05:46:28;;;;;;;1999.90;999.90;;;13.60;99.90;;;;;;5071682;28;20138;-65
2022/09/12 05:48:56;;;;;;;1999.90;999.90;;;13.70;99.90;;;;;;5087609;28;20090;-65
2022/09/12 05:51:25;;;;;;;1999.90;999.90;;;13.70;99.90;;;;;;5069679;28;20141;-65
2022/09/12 05:53:56;;;;;;;1999.90;999.90;;;13.70;99.90;;;;;;5100230;28;20035;-65
2022/09/12 05:56:24;;;;;;;1999.90;999.90;;;13.70;99.90;;;;;;5078814;28;20112;-65
2022/09/12 05:58:56;;;;;;;1999.90;999.90;;;13.80;99.90;;;;;;5066529;28;20043;-65
2022/09/12 06:01:22;;;;;;;1999.90;999.90;;;13.80;99.90;;;;;;5079083;28;20043;-65
2022/09/12 06:03:50;;;;;;;1999.90;999.90;;;13.90;99.90;;;;;;5100211;28;20078;-65
2022/09/12 06:06:21;;;;;;;1999.90;999.90;;;13.90;99.90;;;;;;5079668;28;20112;-65
2022/09/12 06:08:49;;;;;;;1999.90;999.90;;;13.90;99.90;;;;;;5096669;28;20035;-65
2022/09/12 06:11:21;;;;;;;1999.90;999.90;;;14.00;99.90;;;;;;5100993;28;20043;-65
2022/09/12 06:13:48;;;;;;;1999.90;999.90;;;14.00;99.90;;;;;;5079017;28;20555;-65
2022/09/12 06:16:17;;;;;;;1999.90;999.90;;;14.10;99.90;;;;;;5090974;28;20055;-65
2022/09/12 06:18:48;;;;;;;1999.90;999.90;;;14.10;99.90;;;;;;5075227;28;20130;-65
2022/09/12 06:21:14;;;;;;;1999.90;999.90;;;14.20;99.90;;;;;;5096505;28;20035;-65
2022/09/12 06:23:39;;;;;;;1999.90;999.90;;;14.30;99.90;;;;;;5098809;28;20039;-65
2022/09/12 06:26:07;;;;;;;1999.90;999.90;;;14.30;99.90;;;;;;5072867;28;20044;-65
2022/09/12 06:28:39;;;;;;;1999.90;999.90;;;14.30;99.90;;;;;;5080009;28;20414;-65
2022/09/12 06:31:10;;;;;;;1999.90;999.90;;;14.40;99.90;;;;;;5079144;28;20048;-65
2022/09/12 06:33:41;;;;;;;1999.90;999.90;;;14.40;99.90;;;;;;5090722;28;20493;-65
2022/09/12 06:36:12;;;;;;;1999.90;999.90;;;14.40;99.90;;;;;;5093227;28;20036;-65
2022/09/12 06:38:39;;;;;;;1999.90;999.90;;;14.50;99.90;;;;;;5082153;28;20384;-65
2022/09/12 06:41:07;;;;;;;1999.90;999.90;;;14.50;99.90;;;;;;5083524;28;20046;-66
2022/09/12 06:43:33;;;;;;;1999.90;999.90;;;14.50;99.90;;;;;;5080227;28;20047;-65
2022/09/12 06:45:59;;;;;;;1999.90;999.90;;;14.60;99.90;;;;;;5077036;28;20055;-65
2022/09/12 06:48:25;;;;;;;1999.90;999.90;;;14.60;99.90;;;;;;5097366;28;20056;-65
2022/09/12 06:50:59;;;;;;;1999.90;999.90;;;14.60;99.90;;;;;;5063838;28;20039;-65
2022/09/12 06:53:26;;;;;;;1999.90;999.90;;;14.70;99.90;;;;;;5077708;28;20426;-65
2022/09/12 06:56:02;;;;;;;1999.90;999.90;;;14.70;99.90;;;;;;5076891;28;20085;-65
2022/09/12 06:58:28;;;;;;;1999.90;999.90;;;14.80;99.90;;;;;;5077774;28;20056;-65
2022/09/12 07:01:02;;;;;;;1999.90;999.90;;;14.80;99.90;;;;;;5075721;28;20039;-65
2022/09/12 07:03:28;;;;;;;1999.90;999.90;;;14.80;99.90;;;;;;5098378;28;20047;-65
2022/09/12 07:05:54;;;;;;;1999.90;999.90;;;14.90;99.90;;;;;;5079169;28;20122;-65
2022/09/12 07:08:19;;;;;;;1999.90;999.90;;;15.00;99.90;;;;;;5093278;28;20122;-65
2022/09/12 07:10:45;;;;;;;1999.90;999.90;;;15.00;99.90;;;;;;5063173;28;20035;-65
2022/09/12 07:13:10;;;;;;;1999.90;999.90;;;15.10;99.90;;;;;;5096202;28;20794;-66
2022/09/12 07:15:36;;;;;;;1999.90;999.90;;;15.20;99.90;;;;;;5078808;28;20085;-65
2022/09/12 07:18:02;;;;;;;1999.90;999.90;;;15.30;99.90;;;;;;5078075;28;20052;-66
2022/09/12 07:20:28;;;;;;;1999.90;999.90;;;15.40;99.90;;;;;;5092952;28;20040;-65
2022/09/12 07:22:54;;;;;;;1999.90;999.90;;;15.50;99.90;;;;;;5080336;28;20040;-65
2022/09/12 07:25:20;;;;;;;1999.90;999.90;;;15.60;99.90;;;;;;5078139;28;20036;-66
2022/09/12 07:27:45;;;;;;;1999.90;999.90;;;15.70;99.90;;;;;;5096973;28;20043;-65
2022/09/12 07:30:11;;;;;;;1999.90;999.90;;;15.70;99.90;;;;;;5080519;28;20071;-66
2022/09/12 07:32:36;;;;;;;1999.90;999.90;;;15.70;99.90;;;;;;5077402;28;20055;-66
2022/09/12 07:35:02;;;;;;;1999.90;999.90;;;15.80;99.90;;;;;;5076817;28;20040;-66
2022/09/12 07:37:31;;;;;;;1999.90;999.90;;;15.80;99.90;;;;;;5077307;28;20044;-66
2022/09/12 07:39:57;;;;;;;1999.90;999.90;;;15.80;99.90;;;;;;5090709;28;20633;-66
2022/09/12 07:42:23;;;;;;;1999.90;999.90;;;15.80;99.90;;;;;;5056812;28;20035;-66
2022/09/12 07:44:51;;;;;;;1999.90;999.90;;;15.80;99.90;;;;;;5093429;28;20039;-66
2022/09/12 07:47:17;;;;;;;1999.90;999.90;;;15.80;99.90;;;;;;5058449;28;20047;-65
2022/09/12 07:49:43;;;;;;;1999.90;999.90;;;15.90;99.90;;;;;;5080220;28;20503;-66
2022/09/12 07:52:08;;;;;;;1999.90;999.90;;;15.90;99.90;;;;;;5081416;28;20046;-66
2022/09/12 07:54:34;;;;;;;1999.90;999.90;;;16.00;99.90;;;;;;5078478;28;20040;-66
2022/09/12 07:56:59;;;;;;;1999.90;999.90;;;16.10;99.90;;;;;;5078220;28;20036;-66
2022/09/12 07:59:26;;;;;;;1999.90;999.90;;;16.20;99.90;;;;;;5076985;28;20050;-66
2022/09/12 08:01:51;;;;;;;1999.90;999.90;;;16.30;99.90;;;;;;5078197;28;20055;-66
2022/09/12 08:04:17;;;;;;;1999.90;999.90;;;16.40;99.90;;;;;;5077089;28;20044;-66
2022/09/12 08:06:42;;;;;;;1999.90;999.90;;;16.50;99.90;;;;;;5057160;28;20043;-66
2022/09/12 08:09:08;;;;;;;1999.90;999.90;;;16.60;99.90;;;;;;5061223;28;20623;-66
2022/09/12 08:11:34;;;;;;;1999.90;999.90;;;16.70;99.90;;;;;;5081566;28;20045;-66
2022/09/12 08:14:01;;;;;;;1999.90;999.90;;;16.70;99.90;;;;;;5079880;28;20043;-66
2022/09/12 08:16:30;;;;;;;1999.90;999.90;;;16.70;99.90;;;;;;5094008;28;20044;-66
2022/09/12 08:18:55;;;;;;;1999.90;999.90;;;16.80;99.90;;;;;;5076536;28;20122;-66
2022/09/12 08:21:26;;;;;;;1999.90;999.90;;;16.80;99.90;;;;;;5078534;28;20131;-66
2022/09/12 08:23:54;;;;;;;1999.90;999.90;;;16.90;99.90;;;;;;5077698;28;20379;-66
2022/09/12 08:26:20;;;;;;;1999.90;999.90;;;17.00;99.90;;;;;;5060283;28;20039;-66
2022/09/12 08:28:46;;;;;;;1999.90;999.90;;;17.00;99.90;;;;;;5076796;28;20112;-66
2022/09/12 08:31:14;;;;;;;1999.90;999.90;;;17.20;99.90;;;;;;5061674;28;20047;-66
2022/09/12 08:33:40;;;;;;;1999.90;999.90;;;17.20;99.90;;;;;;5075062;28;20124;-66
2022/09/12 08:36:20;;;;;;;1999.90;999.90;;;17.30;99.90;;;;;;5059521;28;20111;-66
2022/09/12 08:38:47;;;;;;;1999.90;999.90;;;17.50;99.90;;;;;;5061285;28;20761;-66
2022/09/12 08:41:30;;;;;;;1999.90;999.90;;;17.60;99.90;;;;;;5060032;28;20039;-66
2022/09/12 08:44:26;;;;;;;1999.90;999.90;;;17.80;99.90;;;;;;5087996;28;20043;-67
2022/09/12 08:47:36;;;;;;;1999.90;999.90;;;17.80;99.90;;;;;;5092987;28;20040;-66
2022/09/12 08:50:08;;;;;;;1999.90;999.90;;;17.90;99.90;;;;;;5071638;28;20060;-66
2022/09/12 08:52:49;;;;;;;1999.90;999.90;;;18.10;99.90;;;;;;5068324;28;20051;-66
2022/09/12 08:55:30;;;;;;;1999.90;999.90;;;18.10;99.90;;;;;;5087763;28;20418;-66
2022/09/12 08:57:57;;;;;;;1999.90;999.90;;;18.30;99.90;;;;;;5066580;28;20048;-66
2022/09/12 09:00:25;;;;;;;1999.90;999.90;;;18.50;99.90;;;;;;5067740;28;20442;-67
2022/09/12 09:03:00;;;;;;;1999.90;999.90;;;18.90;99.90;;;;;;5066363;28;20127;-66
2022/09/12 09:05:46;;;;;;;1999.90;999.90;;;19.40;99.90;;;;;;5086148;28;20036;-67
2022/09/12 09:09:03;;;;;;;1999.90;999.90;;;19.60;99.90;;;;;;5060563;28;20143;-67
2022/09/12 09:11:57;;;;;;;1999.90;999.90;;;19.80;99.90;;;;;;5001994;28;20409;-67
2022/09/12 09:14:47;;;;;;;1999.90;999.90;;;19.90;99.90;;;;;;4997585;28;20053;-67
2022/09/12 09:17:28;;;;;;;1999.90;999.90;;;19.90;99.90;;;;;;5005475;28;20588;-67
2022/09/12 09:20:11;;;;;;;1999.90;999.90;;;20.00;99.90;;;;;;5024766;28;20048;-67
2022/09/12 09:22:45;;;;;;;1999.90;999.90;;;20.10;99.90;;;;;;5007615;28;20092;-67
2022/09/12 09:25:21;;;;;;;1999.90;999.90;;;20.40;99.90;;;;;;4980901;28;20121;-67
2022/09/12 09:28:04;;;;;;;1999.90;999.90;;;20.80;99.90;;;;;;4995403;28;20142;-67
2022/09/12 09:30:32;;;;;;;1999.90;999.90;;;21.10;99.90;;;;;;5021515;28;20469;-67
2022/09/12 09:33:01;;;;;;;1999.90;999.90;;;21.30;99.90;;;;;;5023023;28;20492;-66
2022/09/12 09:35:51;;;;;;;1999.90;999.90;;;21.40;99.90;;;;;;5023581;28;20080;-67
2022/09/12 09:38:24;;;;;;;1999.90;999.90;;;21.70;99.90;;;;;;5008424;28;20049;-66
2022/09/12 09:41:20;;;;;;;1999.90;999.90;;;21.80;99.90;;;;;;5007819;28;20061;-67
2022/09/12 09:43:46;;;;;;;1999.90;999.90;;;21.70;99.90;;;;;;5008852;28;20068;-66
2022/09/12 09:46:12;;;;;;;1999.90;999.90;;;21.60;99.90;;;;;;5033333;28;20064;-67
2022/09/12 09:48:51;;;;;;;1999.90;999.90;;;21.50;99.90;;;;;;5074899;28;20048;-67
2022/09/12 09:51:24;;;;;;;1999.90;999.90;;;21.50;99.90;;;;;;5034710;28;20051;-67
2022/09/12 09:54:19;;;;;;;1999.90;999.90;;;21.50;99.90;;;;;;5055673;28;20040;-67
2022/09/12 09:56:45;;;;;;;1999.90;999.90;;;21.70;99.90;;;;;;5071564;28;20095;-67
2022/09/12 09:59:25;;;;;;;1999.90;999.90;;;22.20;99.90;;;;;;5062843;28;20177;-67
2022/09/12 10:01:58;;;;;;;1999.90;999.90;;;22.60;99.90;;;;;;5066840;28;20143;-67
2022/09/12 10:04:27;;;;;;;1999.90;999.90;;;22.90;99.90;;;;;;5057416;28;20452;-67
2022/09/12 10:06:57;;;;;;;1999.90;999.90;;;22.90;99.90;;;;;;5054331;28;20046;-67
2022/09/12 10:09:34;;;;;;;1999.90;999.90;;;22.70;99.90;;;;;;5057425;28;20040;-67
2022/09/12 10:12:18;;;;;;;1999.90;999.90;;;22.50;99.90;;;;;;5040201;28;20032;-67
2022/09/12 10:14:59;;;;;;;1999.90;999.90;;;22.70;99.90;;;;;;5041003;28;20071;-67
2022/09/12 10:17:41;;;;;;;1999.90;999.90;;;22.60;99.90;;;;;;5045721;28;20143;-67
2022/09/12 10:20:40;;;;;;;1999.90;999.90;;;22.60;99.90;;;;;;5036625;28;20045;-67
2022/09/12 10:23:17;;;;;;;1999.90;999.90;;;22.60;99.90;;;;;;5054487;28;20159;-67
2022/09/12 10:25:52;;;;;;;1999.90;999.90;;;22.80;99.90;;;;;;5058856;28;20044;-67
2022/09/12 10:28:33;;;;;;;1999.90;999.90;;;23.00;99.90;;;;;;5070691;28;20072;-67
2022/09/12 10:31:01;;;;;;;1999.90;999.90;;;23.10;99.90;;;;;;5049608;28;20500;-66
2022/09/12 10:33:28;;;;;;;1999.90;999.90;;;23.30;99.90;;;;;;5056903;28;20082;-67
2022/09/12 10:35:54;;;;;;;1999.90;999.90;;;23.40;99.90;;;;;;5060336;28;20136;-67
2022/09/12 10:38:31;;;;;;;1999.90;999.90;;;23.40;99.90;;;;;;5056881;28;20040;-67
2022/09/12 10:41:04;;;;;;;1999.90;999.90;;;23.40;99.90;;;;;;5045909;28;20052;-66
2022/09/12 10:43:34;;;;;;;1999.90;999.90;;;23.40;99.90;;;;;;5063710;28;20044;-67
2022/09/12 10:46:22;;;;;;;1999.90;999.90;;;23.60;99.90;;;;;;5084114;28;20160;-67
2022/09/12 10:48:50;;;;;;;1999.90;999.90;;;23.80;99.90;;;;;;5053705;28;20051;-67
2022/09/12 10:51:24;;;;;;;1999.90;999.90;;;23.90;99.90;;;;;;5066513;28;20047;-67
2022/09/12 10:54:11;;;;;;;1999.90;999.90;;;24.10;99.90;;;;;;5079863;28;20053;-67
2022/09/12 10:56:56;;;;;;;1999.90;999.90;;;24.40;99.90;;;;;;5092307;28;20047;-68
2022/09/12 10:59:35;;;;;;;1999.90;999.90;;;24.60;99.90;;;;;;5072588;28;20051;-67
2022/09/12 11:02:26;;;;;;;1999.90;999.90;;;24.60;99.90;;;;;;5041803;28;20074;-67
2022/09/12 11:05:10;;;;;;;1999.90;999.90;;;24.40;99.90;;;;;;5064901;28;20156;-68
2022/09/12 11:07:39;;;;;;;1999.90;999.90;;;24.40;99.90;;;;;;5076834;28;20044;-68
2022/09/12 11:10:10;;;;;;;1999.90;999.90;;;24.40;99.90;;;;;;5062253;28;20329;-68
2022/09/12 11:12:54;;;;;;;1999.90;999.90;;;24.40;99.90;;;;;;5080459;28;20048;-67
2022/09/12 11:15:41;;;;;;;1999.90;999.90;;;24.40;99.90;;;;;;5056077;28;20044;-68
2022/09/12 11:18:29;;;;;;;1999.90;999.90;;;24.50;99.90;;;;;;5057135;28;20044;-67
2022/09/12 11:21:17;;;;;;;1999.90;999.90;;;24.60;99.90;;;;;;5075242;28;20046;-68
2022/09/12 11:24:20;;;;;;;1999.90;999.90;;;24.80;99.90;;;;;;5059134;28;20055;-67
2022/09/12 11:27:03;;;;;;;;;;;24.90;99.90;;;;;;5001324;28;20081;-67
2022/09/12 11:30:01;;;;;;;1999.90;999.90;;;24.90;99.90;;;;;;4994336;28;19926;-67
2022/09/12 11:32:50;;;;;;;1999.90;999.90;;;24.90;99.90;;;;;;5000803;28;20112;-67
2022/09/12 11:35:30;;;;;;;1999.90;999.90;;;24.80;99.90;;;;;;4993279;28;20728;-67
2022/09/12 11:37:59;;;;;;;1999.90;999.90;;;24.70;98.90;;;;;;4998558;28;20084;-67
2022/09/12 11:40:26;;;;;;;1999.90;999.90;;;24.80;99.00;;;;;;5022033;28;20187;-67
2022/09/12 11:42:55;;;;;;;1999.90;999.90;;;24.90;99.60;;;;;;5004109;28;20055;-68
2022/09/12 11:45:27;;;;;;;1999.90;999.90;;;25.00;99.70;;;;;;4989509;28;20042;-67
2022/09/12 11:47:57;;;;;;;1999.90;999.90;;;25.30;99.20;;;;;;5011043;28;20425;-67
2022/09/12 11:50:29;;;;;;;1999.90;999.90;;;25.50;99.10;;;;;;5028812;28;20054;-67
2022/09/12 11:53:02;;;;;;;1999.90;999.90;;;25.60;97.70;;;;;;5002649;28;20045;-67
2022/09/12 11:55:36;;;;;;;1999.90;999.90;;;25.50;98.40;;;;;;5001765;28;20034;-67
2022/09/12 11:58:02;;;;;;;1999.90;999.90;;;25.60;97.80;;;;;;5024554;28;20591;-67
2022/09/12 12:00:39;;;;;;;1999.90;999.90;;;25.60;97.10;;;;;;4998376;28;20053;-68
2022/09/12 12:03:36;;;;;;;1999.90;999.90;;;25.50;96.80;;;;;;5037630;28;20112;-67
2022/09/12 12:06:11;;;;;;;1999.90;999.90;;;25.40;96.60;;;;;;5079875;28;20698;-68
2022/09/12 12:08:40;;;;;;;1999.90;999.90;;;25.10;97.20;;;;;;5062548;28;20052;-67
2022/09/12 12:11:07;;;;;;;1999.90;999.90;;;25.00;96.50;;;;;;5079603;28;20040;-68
2022/09/12 12:13:49;;;;;;;1999.90;999.90;;;24.70;96.80;;;;;;5064613;28;20044;-67
2022/09/12 12:16:36;;;;;;;1999.90;999.90;;;24.70;97.10;;;;;;5080671;28;20033;-67
2022/09/12 12:19:07;;;;;;;1999.90;999.90;;;24.70;96.70;;;;;;5057649;28;20601;-67
2022/09/12 12:21:48;;;;;;;1999.90;999.90;;;24.70;96.70;;;;;;5058018;28;20507;-67
2022/09/12 12:24:15;;;;;;;1999.90;999.90;;;24.60;96.80;;;;;;5041442;28;20513;-67
2022/09/12 12:26:57;;;;;;;1999.90;999.90;;;24.60;96.80;;;;;;5056760;28;20503;-67